Time;durP1;ratioP1;P1;durP2;ratioP2;P2;SDS_P1;SDS_P2;PMS_P1;PMS_P2;Temp;Humidity;BMP_temperature;BMP_pressure;BME280_temperature;BME280_humidity;BME280_pressure;Samples;Min_cycle;Max_cycle;Signal;HPM_P1;HPM_P2
2022/08/31 00:03:59;;;;;;;11.40;8.17;;;;;;;17.35;100.00;100647.09;1762193;80;20959;-41
2022/08/31 00:06:24;;;;;;;15.30;8.63;;;;;;;17.33;100.00;100649.40;1785920;80;20971;-41
2022/08/31 00:08:53;;;;;;;13.88;8.28;;;;;;;17.29;100.00;100645.19;1786213;80;21354;-41
2022/08/31 00:11:27;;;;;;;12.88;8.38;;;;;;;17.25;100.00;100645.80;1785997;80;20970;-41
2022/08/31 00:13:49;;;;;;;11.45;8.38;;;;;;;17.21;100.00;100650.78;1785244;80;20947;-41
2022/08/31 00:16:16;;;;;;;10.95;8.13;;;;;;;17.19;100.00;100647.38;1786024;80;21006;-41
2022/08/31 00:18:43;;;;;;;13.62;7.75;;;;;;;17.19;100.00;100651.31;1786117;79;21587;-41
2022/08/31 00:21:10;;;;;;;9.70;7.95;;;;;;;17.17;100.00;100642.66;1786117;80;21228;-41
2022/08/31 00:23:38;;;;;;;14.98;8.00;;;;;;;17.16;100.00;100656.20;1786227;80;20955;-41
2022/08/31 00:26:05;;;;;;;13.85;8.10;;;;;;;17.13;100.00;100650.24;1786221;80;21023;-41
2022/08/31 00:28:32;;;;;;;12.63;7.50;;;;;;;17.11;100.00;100652.94;1786198;80;21572;-41
2022/08/31 00:30:59;;;;;;;12.95;7.85;;;;;;;17.08;100.00;100649.98;1757810;80;20915;-41
2022/08/31 00:33:26;;;;;;;17.10;8.43;;;;;;;17.08;100.00;100646.54;1786282;80;21198;-41
2022/08/31 00:35:53;;;;;;;12.10;7.92;;;;;;;17.10;100.00;100629.02;1774572;80;20833;-41
2022/08/31 00:38:20;;;;;;;9.98;7.37;;;;;;;17.09;100.00;100624.70;1758394;80;21697;-41
2022/08/31 00:40:47;;;;;;;17.57;7.65;;;;;;;17.08;100.00;100623.00;1755087;81;20962;-42
2022/08/31 00:43:36;;;;;;;11.18;8.20;;;;;;;17.03;100.00;100614.04;1727527;81;20852;-41
2022/08/31 00:46:03;;;;;;;14.33;7.95;;;;;;;17.00;100.00;100614.17;1755105;81;21150;-41
2022/08/31 00:48:29;;;;;;;9.18;7.28;;;;;;;16.95;100.00;100618.25;1727742;81;20868;-41
2022/08/31 00:50:57;;;;;;;10.55;7.40;;;;;;;16.90;100.00;100626.75;1755150;81;20974;-41
2022/08/31 00:53:24;;;;;;;11.60;7.53;;;;;;;16.86;100.00;100631.72;1755101;81;21165;-41
2022/08/31 00:55:51;;;;;;;11.28;7.70;;;;;;;16.83;100.00;100629.69;1755181;81;21446;-41
2022/08/31 00:58:18;;;;;;;11.30;7.60;;;;;;;16.80;100.00;100630.68;1755104;81;21349;-41
2022/08/31 01:00:45;;;;;;;12.82;7.75;;;;;;;16.78;100.00;100632.03;1755187;81;21566;-41
2022/08/31 01:03:13;;;;;;;16.37;7.17;;;;;;;16.76;100.00;100633.87;1755022;81;20994;-41
2022/08/31 01:05:41;;;;;;;14.45;7.53;;;;;;;16.75;100.00;100636.53;1727971;81;20904;-41
2022/08/31 01:08:08;;;;;;;13.60;7.47;;;;;;;16.74;100.00;100638.31;1727748;81;21070;-41
2022/08/31 01:10:38;;;;;;;9.55;7.30;;;;;;;16.70;100.00;100639.36;1755323;81;21199;-41
2022/08/31 01:13:05;;;;;;;13.75;7.80;;;;;;;16.65;100.00;100632.14;1727976;81;20963;-41
2022/08/31 01:15:32;;;;;;;12.43;7.22;;;;;;;16.62;100.00;100635.75;1755297;81;20884;-41
2022/08/31 01:18:01;;;;;;;9.10;7.40;;;;;;;16.57;100.00;100631.61;1755084;81;20920;-42
2022/08/31 01:21:00;;;;;;;9.78;7.80;;;;;;;16.54;100.00;100629.12;1755531;81;20978;-41
2022/08/31 01:23:41;;;;;;;14.33;7.55;;;;;;;16.49;100.00;100633.22;1755419;81;22294;-41
2022/08/31 01:26:09;;;;;;;10.15;7.55;;;;;;;16.43;100.00;100634.78;1754752;81;20957;-42
2022/08/31 01:28:36;;;;;;;9.13;6.83;;;;;;;16.38;100.00;100638.44;1727617;81;20935;-42
2022/08/31 01:31:09;;;;;;;13.28;7.50;;;;;;;16.35;100.00;100632.03;1755137;81;20927;-42
2022/08/31 01:33:38;;;;;;;11.25;7.53;;;;;;;16.33;100.00;100632.99;1754737;81;20963;-41
2022/08/31 01:36:06;;;;;;;10.53;7.85;;;;;;;16.31;100.00;100635.68;1755154;81;21216;-42
2022/08/31 01:38:34;;;;;;;12.00;7.92;;;;;;;16.27;100.00;100635.38;1755135;81;21540;-42
2022/08/31 01:41:02;;;;;;;11.45;7.37;;;;;;;16.26;100.00;100632.84;1755103;81;20962;-42
2022/08/31 01:43:34;;;;;;;9.98;7.70;;;;;;;16.25;100.00;100639.81;1755208;81;21447;-42
2022/08/31 01:46:11;;;;;;;11.12;6.95;;;;;;;16.24;100.00;100640.73;1727589;81;20923;-42
2022/08/31 01:48:35;;;;;;;12.68;7.62;;;;;;;16.22;100.00;100633.41;1753828;81;22195;-42
2022/08/31 01:51:03;;;;;;;15.43;8.08;;;;;;;16.20;100.00;100633.49;1727570;81;20891;-42
2022/08/31 01:53:32;;;;;;;10.60;7.37;;;;;;;16.19;100.00;100634.84;1755119;80;20912;-42
2022/08/31 01:55:59;;;;;;;14.80;8.50;;;;;;;16.18;100.00;100642.28;1755048;81;20916;-41
2022/08/31 01:58:27;;;;;;;14.18;8.00;;;;;;;16.15;100.00;100635.88;1755112;81;20931;-42
2022/08/31 02:01:11;;;;;;;16.65;8.85;;;;;;;16.14;100.00;100638.09;1754294;81;21247;-42
2022/08/31 02:03:38;;;;;;;13.78;8.60;;;;;;;16.13;100.00;100639.01;1727721;81;20939;-41
2022/08/31 02:06:10;;;;;;;20.00;8.30;;;;;;;16.16;100.00;100636.27;1755111;81;20931;-42
2022/08/31 02:08:36;;;;;;;17.80;8.90;;;;;;;16.19;100.00;100646.16;1754110;81;20986;-42
2022/08/31 02:11:07;;;;;;;16.73;8.50;;;;;;;16.24;100.00;100639.42;1727601;81;20935;-42
2022/08/31 02:13:34;;;;;;;13.35;7.75;;;;;;;16.29;100.00;100634.86;1755055;80;21183;-40
2022/08/31 02:16:02;;;;;;;15.00;8.18;;;;;;;16.29;100.00;100632.25;1755017;81;21264;-40
2022/08/31 02:18:29;;;;;;;16.87;8.40;;;;;;;16.28;100.00;100624.02;1755103;81;20903;-40
2022/08/31 02:20:56;;;;;;;13.08;7.55;;;;;;;16.27;100.00;100622.32;1755094;81;20931;-40
2022/08/31 02:23:23;;;;;;;10.70;7.28;;;;;;;16.26;100.00;100628.93;1755065;81;20932;-40
2022/08/31 02:25:50;;;;;;;10.82;7.87;;;;;;;16.22;100.00;100625.58;1755166;81;21179;-40
2022/08/31 02:28:17;;;;;;;14.70;7.47;;;;;;;16.18;100.00;100622.25;1755006;81;20868;-40
2022/08/31 02:30:45;;;;;;;7.90;7.10;;;;;;;16.15;100.00;100629.34;1755059;81;20888;-40
2022/08/31 02:33:12;;;;;;;12.10;7.83;;;;;;;16.09;100.00;100626.52;1755157;81;20986;-40
2022/08/31 02:35:40;;;;;;;12.28;7.08;;;;;;;16.06;100.00;100632.72;1755154;81;20931;-40
2022/08/31 02:38:07;;;;;;;12.10;7.28;;;;;;;16.03;100.00;100638.03;1755224;81;22070;-40
2022/08/31 02:40:37;;;;;;;18.90;7.30;;;;;;;16.00;100.00;100644.69;1754105;81;20975;-40
2022/08/31 02:43:05;;;;;;;15.75;7.62;;;;;;;16.00;100.00;100642.55;1749415;82;20955;-40
2022/08/31 02:45:32;;;;;;;12.05;6.95;;;;;;;16.00;100.00;100635.55;1748898;82;20896;-40
2022/08/31 02:48:03;;;;;;;13.53;7.62;;;;;;;15.99;100.00;100636.92;1719984;82;20826;-40
2022/08/31 02:50:48;;;;;;;12.90;6.62;;;;;;;15.95;100.00;100636.18;1722783;82;21944;-40
2022/08/31 02:53:17;;;;;;;11.85;6.83;;;;;;;15.93;100.00;100645.83;1749615;82;20903;-40
2022/08/31 02:55:44;;;;;;;16.57;7.20;;;;;;;15.90;100.00;100646.79;1749517;80;20896;-40
2022/08/31 02:58:11;;;;;;;12.98;6.90;;;;;;;15.87;100.00;100644.27;1749487;81;20955;-40
2022/08/31 03:00:39;;;;;;;14.05;6.70;;;;;;;15.82;100.00;100639.68;1749828;82;21057;-40
2022/08/31 03:03:06;;;;;;;8.83;6.58;;;;;;;15.80;100.00;100641.50;1749367;82;22059;-40
2022/08/31 03:05:34;;;;;;;15.83;7.30;;;;;;;15.78;100.00;100642.84;1720315;82;20878;-40
2022/08/31 03:08:03;;;;;;;16.67;7.35;;;;;;;15.77;100.00;100640.31;1749407;82;21010;-40
2022/08/31 03:10:30;;;;;;;8.40;7.00;;;;;;;15.76;100.00;100634.23;1720411;82;20987;-40
2022/08/31 03:12:58;;;;;;;16.15;7.42;;;;;;;15.76;100.00;100638.14;1749503;82;20975;-40
2022/08/31 03:15:27;;;;;;;8.03;6.45;;;;;;;15.79;100.00;100642.41;1749536;82;22565;-40
2022/08/31 03:17:55;;;;;;;10.05;6.80;;;;;;;15.80;100.00;100644.97;1749166;82;20924;-40
2022/08/31 03:20:25;;;;;;;19.55;7.08;;;;;;;15.84;100.00;100646.99;1749545;82;20931;-40
2022/08/31 03:22:53;;;;;;;13.13;7.35;;;;;;;15.91;100.00;100646.34;1720856;82;21010;-40
2022/08/31 03:25:21;;;;;;;9.90;6.58;;;;;;;15.99;100.00;100637.77;1749520;82;20943;-40
2022/08/31 03:27:49;;;;;;;11.18;6.42;;;;;;;16.05;100.00;100641.47;1749847;82;21831;-40
2022/08/31 03:30:19;;;;;;;11.12;6.12;;;;;;;16.09;100.00;100640.44;1749478;82;20920;-40
2022/08/31 03:32:47;;;;;;;12.10;6.95;;;;;;;16.17;100.00;100644.50;1720223;82;20896;-41
2022/08/31 03:35:16;;;;;;;9.83;6.12;;;;;;;16.22;100.00;100649.08;1749710;82;21580;-41
2022/08/31 03:37:44;;;;;;;9.68;6.50;;;;;;;16.27;100.00;100652.36;1720390;82;20939;-41
2022/08/31 03:40:11;;;;;;;13.98;6.35;;;;;;;16.34;100.00;100649.92;1749353;82;21231;-41
2022/08/31 03:42:40;;;;;;;14.55;7.08;;;;;;;16.39;100.00;100651.02;1754223;81;20931;-41
2022/08/31 03:45:09;;;;;;;8.08;6.65;;;;;;;16.43;100.00;100647.41;1755207;81;20920;-41
2022/08/31 03:47:37;;;;;;;10.72;6.53;;;;;;;16.49;100.00;100643.67;1727867;81;20963;-41
2022/08/31 03:50:06;;;;;;;10.88;6.70;;;;;;;16.56;100.00;100645.15;1754998;81;20967;-41
2022/08/31 03:52:37;;;;;;;8.70;5.87;;;;;;;16.63;100.00;100640.50;1753449;81;21279;-41
2022/08/31 03:55:08;;;;;;;13.95;7.00;;;;;;;16.72;100.00;100644.50;1754411;81;21556;-41
2022/08/31 03:57:36;;;;;;;14.10;7.12;;;;;;;16.80;100.00;100647.20;1728003;81;20956;-41
2022/08/31 04:00:05;;;;;;;10.65;6.85;;;;;;;16.89;100.00;100646.41;1754897;81;20987;-41
2022/08/31 04:02:40;;;;;;;13.93;7.28;;;;;;;16.97;100.00;100646.09;1755220;81;21485;-41
2022/08/31 04:05:27;;;;;;;17.67;6.47;;;;;;;17.06;100.00;100650.52;1755395;81;21298;-42
2022/08/31 04:08:08;;;;;;;9.23;6.75;;;;;;;17.18;100.00;100650.92;1692113;81;21497;-42
2022/08/31 04:10:46;;;;;;;9.80;6.83;;;;;;;17.29;100.00;100645.19;1755286;81;20919;-42
2022/08/31 04:13:16;;;;;;;13.43;6.67;;;;;;;17.38;100.00;100639.58;1750385;80;21568;-42
2022/08/31 04:15:50;;;;;;;24.15;7.65;;;;;;;17.51;100.00;100641.19;1723289;81;20955;-42
2022/08/31 04:18:42;;;;;;;17.95;6.95;;;;;;;17.63;100.00;100644.55;1755295;81;21292;-42
2022/08/31 04:21:16;;;;;;;14.28;6.58;;;;;;;17.79;100.00;100639.94;1754982;81;21298;-42
2022/08/31 04:23:44;;;;;;;15.18;7.28;;;;;;;17.96;100.00;100643.08;1753511;81;20971;-42
2022/08/31 04:26:20;;;;;;;17.48;7.78;;;;;;;18.09;100.00;100644.25;1755289;81;20887;-42
2022/08/31 04:28:47;;;;;;;13.93;6.62;;;;;;;18.23;100.00;100646.66;1755583;81;20916;-43
2022/08/31 04:31:15;;;;;;;8.40;6.60;;;;;;;18.33;100.00;100653.18;1755153;81;21125;-43
2022/08/31 04:33:42;;;;;;;10.50;6.50;;;;;;;18.42;100.00;100650.55;1755365;81;21366;-42
2022/08/31 04:36:12;;;;;;;11.57;6.87;;;;;;;18.54;100.00;100654.35;1727803;81;21481;-42
2022/08/31 04:38:45;;;;;;;14.73;7.47;;;;;;;18.64;100.00;100651.69;1755234;80;21464;-40
2022/08/31 04:41:14;;;;;;;14.58;7.22;;;;;;;18.69;100.00;100658.47;1754271;81;21185;-40
2022/08/31 04:43:44;;;;;;;14.18;7.17;;;;;;;18.71;100.00;100658.79;1749621;82;21116;-40
2022/08/31 04:46:12;;;;;;;13.30;6.72;;;;;;;18.72;100.00;100650.45;1749584;82;20967;-40
2022/08/31 04:48:39;;;;;;;15.00;7.90;;;;;;;18.72;100.00;100649.14;1749608;82;20980;-40
2022/08/31 04:51:10;;;;;;;9.05;6.60;;;;;;;18.72;100.00;100649.14;1749673;82;21489;-40
2022/08/31 04:53:38;;;;;;;15.32;7.05;;;;;;;18.78;100.00;100660.17;1749392;82;20967;-40
2022/08/31 04:56:12;;;;;;;11.60;6.72;;;;;;;18.84;100.00;100656.41;1720229;82;21917;-40
2022/08/31 04:58:37;;;;;;;18.92;6.92;;;;;;;18.92;100.00;100652.92;1749177;81;20927;-40
2022/08/31 05:01:09;;;;;;;15.55;7.28;;;;;;;19.00;100.00;100651.27;1749765;82;21571;-40
2022/08/31 05:03:56;;;;;;;8.23;6.70;;;;;;;19.09;100.00;100652.58;1666395;85;21035;-40
2022/08/31 05:06:26;;;;;;;10.60;6.85;;;;;;;19.17;100.00;100656.95;1685937;85;21056;-40
2022/08/31 05:08:56;;;;;;;18.10;6.55;;;;;;;19.24;100.00;100653.08;1702724;82;21125;-40
2022/08/31 05:11:23;;;;;;;10.80;7.58;;;;;;;19.34;100.00;100650.83;1749448;82;21431;-40
2022/08/31 05:13:52;;;;;;;12.95;7.00;;;;;;;19.45;100.00;100647.64;1749512;82;20904;-40
2022/08/31 05:16:20;;;;;;;10.65;7.85;;;;;;;19.55;100.00;100649.77;1749528;82;20971;-40
2022/08/31 05:18:48;;;;;;;14.23;8.08;;;;;;;19.62;100.00;100649.84;1749469;82;21446;-40
2022/08/31 05:21:19;;;;;;;16.40;7.58;;;;;;;19.66;100.00;100651.38;1749456;82;21126;-40
2022/08/31 05:23:47;;;;;;;8.88;6.87;;;;;;;19.70;100.00;100649.41;1720369;82;20917;-40
2022/08/31 05:26:18;;;;;;;14.75;7.20;;;;;;;19.74;99.45;100648.34;1749469;82;20888;-40
2022/08/31 05:28:46;;;;;;;13.15;7.30;;;;;;;19.80;99.52;100662.44;1749567;82;21014;-40
2022/08/31 05:31:13;;;;;;;11.03;7.58;;;;;;;19.81;98.44;100653.15;1749472;82;20923;-40
2022/08/31 05:33:42;;;;;;;13.80;7.60;;;;;;;19.88;98.94;100655.47;1749446;82;21144;-40
2022/08/31 05:36:10;;;;;;;13.03;7.45;;;;;;;19.93;98.09;100649.52;1749403;82;20964;-40
2022/08/31 05:38:38;;;;;;;16.50;7.28;;;;;;;20.00;97.66;100653.98;1749762;82;20998;-40
2022/08/31 05:41:06;;;;;;;8.38;6.72;;;;;;;20.04;96.72;100647.14;1749357;82;20986;-40
2022/08/31 05:43:34;;;;;;;11.85;6.97;;;;;;;20.08;96.49;100651.31;1749483;81;20912;-40
2022/08/31 05:46:03;;;;;;;13.55;7.08;;;;;;;20.14;96.69;100656.67;1749382;82;22090;-40
2022/08/31 05:48:32;;;;;;;13.60;7.60;;;;;;;20.18;95.85;100660.82;1749439;82;20971;-40
2022/08/31 05:51:02;;;;;;;17.57;7.75;;;;;;;20.20;96.19;100651.55;1749424;82;20951;-40
2022/08/31 05:53:29;;;;;;;16.10;6.87;;;;;;;20.31;96.97;100660.98;1749764;82;20975;-40
2022/08/31 05:56:09;;;;;;;8.28;7.30;;;;;;;20.43;96.84;100652.03;1749437;82;20979;-40
2022/08/31 05:58:39;;;;;;;18.77;7.20;;;;;;;20.55;96.85;100659.20;1749650;81;21703;-40
2022/08/31 06:01:19;;;;;;;11.85;7.33;;;;;;;20.67;97.01;100662.91;1749358;82;20994;-40
2022/08/31 06:03:57;;;;;;;14.73;7.00;;;;;;;20.77;98.21;100668.49;1748530;82;20939;-40
2022/08/31 06:06:25;;;;;;;19.25;7.42;;;;;;;20.88;97.95;100663.50;1749441;82;20948;-40
2022/08/31 06:08:52;;;;;;;10.40;7.53;;;;;;;20.97;96.87;100663.44;1749432;82;20928;-40
2022/08/31 06:11:23;;;;;;;10.95;7.10;;;;;;;21.03;96.91;100663.52;1749442;82;21245;-40
2022/08/31 06:13:54;;;;;;;9.93;6.85;;;;;;;21.16;96.86;100669.76;1749444;82;20900;-41
2022/08/31 06:16:21;;;;;;;15.88;6.33;;;;;;;21.30;96.80;100666.30;1749632;82;21458;-40
2022/08/31 06:18:50;;;;;;;11.12;7.15;;;;;;;21.44;95.59;100665.45;1749300;82;21592;-40
2022/08/31 06:21:32;;;;;;;9.38;6.22;;;;;;;21.60;96.29;100671.08;1749515;80;20934;-40
2022/08/31 06:23:59;;;;;;;22.07;6.60;;;;;;;21.75;94.51;100664.91;1720122;82;21157;-40
2022/08/31 06:26:29;;;;;;;14.65;6.67;;;;;;;21.94;91.63;100663.76;1749698;82;20916;-40
2022/08/31 06:28:58;;;;;;;9.48;6.15;;;;;;;22.13;90.96;100667.86;1749369;82;20998;-40
2022/08/31 06:31:36;;;;;;;13.50;6.67;;;;;;;22.34;90.96;100668.27;1749538;82;20900;-40
2022/08/31 06:34:05;;;;;;;10.55;6.87;;;;;;;22.56;90.85;100670.85;1749739;82;20975;-40
2022/08/31 06:36:41;;;;;;;10.65;6.08;;;;;;;22.72;87.72;100677.27;1745311;82;21230;-40
2022/08/31 06:39:19;;;;;;;9.75;6.45;;;;;;;22.90;88.17;100676.05;1747433;82;21002;-42
2022/08/31 06:41:51;;;;;;;8.20;6.08;;;;;;;23.10;87.96;100671.20;1746732;81;20983;-42
2022/08/31 06:44:35;;;;;;;13.90;5.95;;;;;;;23.31;87.27;100662.80;1749568;82;20963;-42
2022/08/31 06:47:06;;;;;;;9.38;6.87;;;;;;;23.54;85.66;100658.56;1749357;82;21006;-42
2022/08/31 06:49:35;;;;;;;7.53;5.70;;;;;;;23.65;83.48;100662.60;1749216;82;21160;-42
2022/08/31 06:52:03;;;;;;;9.55;5.85;;;;;;;23.73;83.44;100658.56;1749457;82;21026;-42
2022/08/31 06:54:32;;;;;;;11.08;5.47;;;;;;;23.87;82.37;100662.41;1749439;82;20872;-42
2022/08/31 06:57:18;;;;;;;8.35;6.20;;;;;;;24.00;81.95;100665.01;1724828;80;20998;-41
2022/08/31 07:00:06;;;;;;;8.95;6.00;;;;;;;24.17;79.38;100665.13;1749461;82;21458;-41
2022/08/31 07:02:47;;;;;;;7.75;5.65;;;;;;;24.31;76.47;100665.94;1745966;82;21174;-42
2022/08/31 07:05:15;;;;;;;12.45;6.17;;;;;;;24.39;76.03;100670.17;1749336;82;20947;-41
2022/08/31 07:07:42;;;;;;;8.93;5.53;;;;;;;24.53;75.73;100665.19;1749160;82;20931;-42
2022/08/31 07:10:11;;;;;;;9.70;6.20;;;;;;;24.66;74.39;100661.14;1749333;82;20935;-42
2022/08/31 07:12:38;;;;;;;7.75;5.50;;;;;;;24.70;73.48;100658.63;1749271;82;20908;-41
2022/08/31 07:15:06;;;;;;;6.00;5.40;;;;;;;24.81;75.86;100659.17;1749402;82;21437;-41
2022/08/31 07:17:34;;;;;;;8.33;5.17;;;;;;;24.86;73.04;100655.69;1749294;82;20975;-41
2022/08/31 07:20:04;;;;;;;8.83;5.20;;;;;;;24.85;73.42;100659.30;1749343;82;20899;-42
2022/08/31 07:22:31;;;;;;;11.30;4.70;;;;;;;24.79;71.49;100662.42;1749464;82;20880;-41
2022/08/31 07:25:04;;;;;;;6.28;4.90;;;;;;;24.71;70.63;100663.45;1746444;82;20970;-42
2022/08/31 07:27:33;;;;;;;10.38;5.65;;;;;;;24.69;70.71;100655.62;1749679;80;21402;-42
2022/08/31 07:30:00;;;;;;;8.63;5.80;;;;;;;24.74;72.37;100660.57;1749249;82;20896;-42
2022/08/31 07:32:29;;;;;;;10.95;5.10;;;;;;;24.80;72.60;100655.70;1749250;82;20916;-42
2022/08/31 07:34:56;;;;;;;10.58;4.97;;;;;;;24.87;72.42;100661.34;1749382;82;20995;-42
2022/08/31 07:42:56;;;;;;;;;;;;;;;25.28;70.46;100656.97;1754394;81;20928;-42
2022/08/31 07:45:24;;;;;;;13.58;5.03;;;;;;;25.37;69.18;100652.27;1727675;81;20085;-42
2022/08/31 07:47:53;;;;;;;13.70;5.15;;;;;;;25.46;67.37;100650.24;1754809;81;20892;-41
2022/08/31 07:50:22;;;;;;;6.65;4.60;;;;;;;25.62;69.04;100645.06;1754916;81;20864;-42
2022/08/31 07:52:54;;;;;;;8.10;5.17;;;;;;;25.87;66.44;100644.43;1692720;81;21247;-42
2022/08/31 07:58:26;;;;;;;6.70;4.75;;;;;;;26.27;66.18;100639.91;1784064;79;22705;-41
2022/08/31 08:00:54;;;;;;;8.35;4.72;;;;;;;26.33;66.54;100632.75;1749605;82;21485;-42
2022/08/31 08:03:21;;;;;;;6.37;4.58;;;;;;;26.47;65.43;100624.97;1749529;82;21043;-41
2022/08/31 08:06:08;;;;;;;5.87;5.00;;;;;;;26.54;64.23;100621.33;1749626;82;20959;-42
2022/08/31 08:08:37;;;;;;;6.35;4.62;;;;;;;26.64;64.21;100612.94;1746703;82;20995;-42
2022/08/31 08:11:17;;;;;;;4.85;4.00;;;;;;;26.87;62.31;100612.01;1749034;82;21054;-42
2022/08/31 08:13:45;;;;;;;5.50;4.08;;;;;;;27.07;58.26;100606.30;1719499;82;21347;-42
2022/08/31 08:16:20;;;;;;;8.88;3.85;;;;;;;27.29;57.46;100606.63;1749638;81;21208;-42
2022/08/31 08:18:49;;;;;;;7.25;4.10;;;;;;;27.54;53.29;100606.66;1747009;82;20893;-42
2022/08/31 08:21:17;;;;;;;6.37;2.75;;;;;;;27.75;53.43;100606.20;1749258;82;21102;-42
2022/08/31 08:23:45;;;;;;;10.08;3.45;;;;;;;27.91;47.63;100603.00;1749526;82;21082;-42
2022/08/31 08:26:19;;;;;;;4.28;3.50;;;;;;;27.95;49.36;100599.94;1745028;82;20979;-42
2022/08/31 08:28:57;;;;;;;4.90;3.67;;;;;;;28.10;49.41;100599.03;1748523;82;21171;-42
2022/08/31 08:31:27;;;;;;;7.42;3.80;;;;;;;28.16;48.70;100599.48;1749543;81;20971;-42
2022/08/31 08:33:53;;;;;;;6.35;3.67;;;;;;;28.27;50.13;100595.37;1749460;82;20999;-42
2022/08/31 08:36:21;;;;;;;6.97;3.72;;;;;;;28.51;49.21;100596.74;1749354;81;21006;-42
2022/08/31 08:38:50;;;;;;;9.18;3.77;;;;;;;28.68;47.85;100593.83;1749505;81;21447;-42
2022/08/31 08:41:21;;;;;;;6.33;3.72;;;;;;;28.77;47.72;100600.13;1749467;82;21787;-42
2022/08/31 08:43:57;;;;;;;3.77;3.47;;;;;;;28.86;46.92;100594.45;1749398;81;21039;-42
2022/08/31 08:46:47;;;;;;;6.25;3.62;;;;;;;29.12;46.72;100591.97;1749458;82;20976;-41
2022/08/31 08:49:26;;;;;;;4.10;3.83;;;;;;;29.40;44.91;100591.97;1720110;82;20908;-43
2022/08/31 08:52:10;;;;;;;4.05;3.62;;;;;;;29.21;45.92;100589.77;1749500;82;20920;-42
2022/08/31 08:54:39;;;;;;;4.95;3.33;;;;;;;28.96;46.41;100590.78;1749341;81;21300;-42
2022/08/31 08:57:13;;;;;;;3.65;3.33;;;;;;;29.13;47.60;100594.16;1749769;81;21542;-42
2022/08/31 08:59:42;;;;;;;7.70;2.70;;;;;;;29.35;47.81;100583.59;1750725;82;21475;-42
2022/08/31 09:02:33;;;;;;;4.33;2.60;;;;;;;29.71;45.87;100577.52;1750171;81;20976;-42
2022/08/31 09:05:22;;;;;;;3.87;2.80;;;;;;;29.87;44.69;100586.17;1750448;82;20963;-42
2022/08/31 09:07:59;;;;;;;4.30;3.05;;;;;;;29.65;42.96;100586.95;1749538;82;21163;-42
2022/08/31 09:10:36;;;;;;;7.40;3.02;;;;;;;29.49;46.11;100589.80;1749722;82;21011;-42
2022/08/31 09:13:20;;;;;;;8.03;2.92;;;;;;;29.35;46.23;100581.78;1749947;81;20940;-43
2022/08/31 09:15:57;;;;;;;4.95;3.15;;;;;;;29.29;45.39;100585.52;1749831;82;20992;-43
2022/08/31 09:18:54;;;;;;;6.00;3.30;;;;;;;29.46;44.87;100575.92;1749863;81;20962;-43
2022/08/31 09:21:29;;;;;;;6.15;2.90;;;;;;;29.53;44.90;100576.51;1750030;82;21224;-41
2022/08/31 09:24:03;;;;;;;8.08;3.45;;;;;;;29.60;43.99;100574.56;1749967;81;28760;-42
2022/08/31 09:27:01;;;;;;;10.70;3.45;;;;;;;29.62;44.98;100574.77;1747733;80;20893;-42
2022/08/31 09:29:34;;;;;;;6.87;3.30;;;;;;;29.64;46.37;100574.61;1749713;81;20881;-42
2022/08/31 09:32:08;;;;;;;3.58;3.12;;;;;;;29.67;45.27;100571.16;1698945;82;20937;-42
2022/08/31 09:34:39;;;;;;;8.05;3.00;;;;;;;29.78;44.42;100566.58;1749873;82;21087;-41
2022/08/31 09:37:22;;;;;;;3.98;3.10;;;;;;;29.79;43.15;100570.92;1749667;82;20936;-41
2022/08/31 09:39:51;;;;;;;3.85;3.47;;;;;;;29.82;44.23;100567.47;1749969;81;20932;-42
2022/08/31 09:42:31;;;;;;;4.03;2.98;;;;;;;29.74;42.75;100563.39;1749845;82;20983;-42
2022/08/31 09:45:10;;;;;;;3.80;2.87;;;;;;;29.54;43.91;100567.52;1750000;80;20900;-42
2022/08/31 09:47:50;;;;;;;10.35;3.67;;;;;;;29.47;43.31;100561.12;1750043;82;21174;-42
2022/08/31 09:50:45;;;;;;;5.12;2.72;;;;;;;29.54;44.70;100566.19;1749213;82;20932;-41
2022/08/31 09:56:21;;;;;;;6.50;3.52;;;;;;;29.56;45.13;100570.53;1749920;82;21039;-43
2022/08/31 09:58:54;;;;;;;7.55;4.35;;;;;;;29.66;46.15;100571.30;1749714;82;20984;-42
2022/08/31 10:01:43;;;;;;;8.38;3.95;;;;;;;29.75;45.94;100566.41;1749991;82;21249;-42
2022/08/31 10:04:25;;;;;;;7.80;4.40;;;;;;;29.77;46.18;100567.09;1749936;82;20921;-43
2022/08/31 10:07:06;;;;;;;7.50;4.28;;;;;;;29.92;45.88;100565.20;1749691;81;20896;-43
2022/08/31 10:09:46;;;;;;;7.53;5.30;;;;;;;30.22;45.77;100570.67;1749481;82;21462;-41
2022/08/31 10:12:42;;;;;;;7.70;5.22;;;;;;;30.31;45.66;100562.23;1749826;82;21336;-43
2022/08/31 10:15:20;;;;;;;10.98;5.75;;;;;;;30.13;46.29;100572.95;1749772;82;21966;-43
2022/08/31 10:18:01;;;;;;;11.10;5.87;;;;;;;29.78;46.74;100566.09;1746799;82;20963;-43
2022/08/31 10:20:31;;;;;;;21.75;6.10;;;;;;;29.30;47.10;100567.21;1749422;81;21580;-43
2022/08/31 10:23:15;;;;;;;11.12;6.17;;;;;;;28.92;49.00;100572.56;1749891;82;22093;-42
2022/08/31 10:25:51;;;;;;;17.02;6.30;;;;;;;28.81;48.49;100566.92;1749957;80;20881;-42
2022/08/31 10:28:36;;;;;;;8.73;6.17;;;;;;;28.77;48.03;100572.98;1749166;82;21267;-43
2022/08/31 10:31:30;;;;;;;11.25;6.00;;;;;;;28.70;47.99;100570.56;1749386;82;20983;-42
2022/08/31 10:37:06;;;;;;;14.75;6.25;;;;;;;28.53;49.72;100569.48;1749489;81;20995;-42
2022/08/31 10:39:40;;;;;;;8.30;5.50;;;;;;;28.20;49.49;100571.64;1749793;82;21046;-41
2022/08/31 10:42:11;;;;;;;9.60;6.20;;;;;;;27.78;50.69;100575.34;1748744;82;21180;-41
2022/08/31 10:44:56;;;;;;;11.63;6.42;;;;;;;27.43;50.80;100576.19;1749559;82;20857;-42
2022/08/31 10:47:24;;;;;;;8.65;5.87;;;;;;;27.00;52.97;100576.77;1749623;82;20936;-40
2022/08/31 10:49:54;;;;;;;8.88;6.17;;;;;;;26.74;55.04;100584.31;1749537;82;20932;-42
2022/08/31 10:52:31;;;;;;;9.03;6.40;;;;;;;26.64;55.29;100581.09;1749773;82;20932;-42
2022/08/31 10:55:29;;;;;;;10.28;6.75;;;;;;;26.50;56.58;100580.93;1749680;82;21177;-42
2022/08/31 10:58:07;;;;;;;9.00;6.67;;;;;;;26.36;58.22;100579.94;1659589;86;21043;-43
2022/08/31 11:00:46;;;;;;;9.13;6.83;;;;;;;26.32;58.56;100582.00;1728027;82;20940;-42
2022/08/31 11:03:46;;;;;;;15.05;7.20;;;;;;;26.30;58.77;100575.16;1749757;82;21478;-43
2022/08/31 11:06:45;;;;;;;8.53;6.30;;;;;;;26.23;58.69;100586.75;1749652;82;20916;-42
2022/08/31 11:09:21;;;;;;;17.85;7.10;;;;;;;26.15;60.00;100586.52;1749747;82;21254;-43
2022/08/31 11:11:56;;;;;;;9.13;6.60;;;;;;;25.97;61.36;100583.91;1749589;82;20983;-43
2022/08/31 11:14:57;;;;;;;10.78;6.58;;;;;;;25.86;59.92;100581.31;1750068;82;21385;-42
2022/08/31 11:17:54;;;;;;;9.38;6.15;;;;;;;25.89;61.25;100577.55;1749622;81;20924;-42
2022/08/31 11:20:57;;;;;;;7.25;6.53;;;;;;;26.18;60.82;100569.06;1749859;82;21027;-43
2022/08/31 11:23:29;;;;;;;12.28;6.15;;;;;;;26.54;56.10;100573.09;1749628;82;22172;-43
2022/08/31 11:26:22;;;;;;;8.48;6.05;;;;;;;26.88;51.55;100568.55;1732002;82;20980;-42
2022/08/31 11:28:57;;;;;;;7.00;5.83;;;;;;;27.20;51.00;100568.42;1728528;82;20968;-42
2022/08/31 11:31:26;;;;;;;11.35;6.25;;;;;;;27.71;50.21;100550.30;1749524;81;20976;-41
2022/08/31 11:33:59;;;;;;;12.75;5.83;;;;;;;28.17;45.58;100552.80;1749784;82;21570;-41
2022/08/31 11:36:46;;;;;;;10.63;6.60;;;;;;;28.17;46.24;100555.45;1749996;82;21371;-42
2022/08/31 11:39:19;;;;;;;9.88;6.42;;;;;;;28.22;45.13;100541.74;1734874;82;21531;-42
2022/08/31 11:41:49;;;;;;;14.85;6.50;;;;;;;28.42;45.96;100549.20;1750016;82;21342;-42
2022/08/31 11:44:35;;;;;;;12.10;7.30;;;;;;;28.75;46.89;100551.50;1749418;82;20948;-42
2022/08/31 11:47:15;;;;;;;11.40;7.20;;;;;;;28.86;44.14;100553.18;1749982;82;21477;-42
2022/08/31 11:49:51;;;;;;;17.25;6.75;;;;;;;28.64;44.65;100553.84;1749618;81;21979;-43
2022/08/31 11:52:46;;;;;;;16.17;7.45;;;;;;;28.44;44.08;100555.72;1749327;81;20908;-42
2022/08/31 11:55:23;;;;;;;14.53;7.22;;;;;;;28.17;44.83;100554.12;1749548;82;21431;-43
2022/08/31 11:58:13;;;;;;;9.70;7.17;;;;;;;28.04;46.03;100550.39;1749412;81;20996;-42
2022/08/31 12:00:50;;;;;;;10.03;7.08;;;;;;;28.00;46.65;100542.35;1749689;82;20924;-42